This is the latest recevied weather packets stored in our database for station/object KJ4HF. If no packets are shown the sender has not sent any weather packets the latest 10 day(s).
| Time | Temp. | Humidity | Pressure | Rain* | Wind** | Luminosity | Snow |
|---|---|---|---|---|---|---|---|
| 1777824343 | 16.67° C | 34% | 1020.2 hPa | 0 mm | - | 983 W/m² | - |
| 1777824071 | 15.56° C | 36% | 1020.2 hPa | 0 mm | - | 970 W/m² | - |
| 1777822843 | 15.56° C | 35% | 1020.3 hPa | 0 mm | - | 947 W/m² | - |
| 1777821044 | 14.44° C | 37% | 1020.6 hPa | 0 mm | - | 884 W/m² | - |
| 1777818944 | 13.33° C | 39% | 1020.5 hPa | 0 mm | - | 795 W/m² | - |
| 1777816849 | 13.33° C | 45% | 1020.4 hPa | 0 mm | - | 687 W/m² | - |
| 1777816543 | 13.33° C | 45% | 1020.4 hPa | 0 mm | - | 670 W/m² | - |
| 1777815952 | 12.78° C | 45% | 1020.2 hPa | 0 mm | - | 636 W/m² | - |
| 1777812643 | 10.56° C | 66% | 1020.1 hPa | 0 mm | - | 424 W/m² | - |
| 1777812352 | 10° C | 76% | 1020.1 hPa | 0 mm | - | 403 W/m² | - |
| 1777812040 | 9.44° C | 77% | 1020.1 hPa | 0 mm | - | 381 W/m² | - |
| 1777810840 | 6.11° C | 85% | 1020 hPa | 0 mm | - | 181 W/m² | - |
| 1777810244 | 5.56° C | 85% | 1020 hPa | 0 mm | - | 83 W/m² | - |
| 1777808750 | 3.33° C | 90% | 1019.8 hPa | 0 mm | - | 33 W/m² | - |
| 1777803349 | 1.67° C | 93% | 1018.5 hPa | 0 mm | - | 0 W/m² | - |
| 1777803043 | 1.67° C | 93% | 1018.3 hPa | 0 mm | - | 0 W/m² | - |
| 1777802743 | 1.67° C | 93% | 1018.2 hPa | 0 mm | - | 0 W/m² | - |
| 1777800339 | 2.22° C | 91% | 1017.7 hPa | 0 mm | - | 0 W/m² | - |
| 1777800043 | 2.22° C | 92% | 1017.7 hPa | 0 mm | - | 0 W/m² | - |
| 1777799752 | 2.22° C | 92% | 1017.7 hPa | 0 mm | - | 0 W/m² | - |
| 1777799145 | 2.22° C | 91% | 1017.6 hPa | 0 mm | - | 0 W/m² | - |
| 1777794941 | 2.78° C | 91% | 1017.1 hPa | 0 mm | - | 0 W/m² | - |
| 1777792554 | 3.33° C | 90% | 1016.6 hPa | 0 mm | - | 0 W/m² | - |
| 1777792242 | 3.33° C | 90% | 1016.6 hPa | 0 mm | - | 0 W/m² | - |
| 1777790443 | 3.33° C | 90% | 1016.2 hPa | 0 mm | - | 0 W/m² | - |
* Rain latest hour (hover to see other rain measurements)
** Current wind speed in m/s (hover to see current wind gust speed)